sensor_id;sensor_type;location;lat;lon;timestamp;pressure;altitude;pressure_sealevel;temperature;humidity
13456;BME280;6800;50.940;6.940;2022-12-18T00:02:40;102118.56;;;6.49;37.99
13456;BME280;6800;50.940;6.940;2022-12-18T00:06:40;102130.97;;;5.69;40.09
13456;BME280;6800;50.940;6.940;2022-12-18T00:10:40;102123.84;;;5.86;39.31
13456;BME280;6800;50.940;6.940;2022-12-18T00:14:41;102127.53;;;6.28;39.13
13456;BME280;6800;50.940;6.940;2022-12-18T00:18:42;102136.13;;;6.30;38.65
13456;BME280;6800;50.940;6.940;2022-12-18T00:22:42;102128.13;;;6.47;38.27
13456;BME280;6800;50.940;6.940;2022-12-18T00:26:43;102127.94;;;6.56;38.05
13456;BME280;6800;50.940;6.940;2022-12-18T00:30:43;102132.03;;;6.18;39.24
13456;BME280;6800;50.940;6.940;2022-12-18T00:34:43;102138.75;;;6.28;38.52
13456;BME280;6800;50.940;6.940;2022-12-18T00:38:44;102147.78;;;5.35;40.57
13456;BME280;6800;50.940;6.940;2022-12-18T00:42:45;102151.84;;;6.19;39.31
13456;BME280;6800;50.940;6.940;2022-12-18T00:46:58;102149.97;;;6.30;39.22
13456;BME280;6800;50.940;6.940;2022-12-18T00:50:58;102144.03;;;6.24;38.65
13456;BME280;6800;50.940;6.940;2022-12-18T00:54:58;102121.47;;;5.70;39.20
13456;BME280;6800;50.940;6.940;2022-12-18T00:58:59;102119.78;;;6.26;38.02
13456;BME280;6800;50.940;6.940;2022-12-18T01:02:59;102131.22;;;6.15;39.52
13456;BME280;6800;50.940;6.940;2022-12-18T01:06:59;102130.38;;;6.11;38.49
13456;BME280;6800;50.940;6.940;2022-12-18T01:11:01;102123.09;;;6.35;38.32
13456;BME280;6800;50.940;6.940;2022-12-18T01:15:02;102124.38;;;6.09;39.24
13456;BME280;6800;50.940;6.940;2022-12-18T01:19:02;102116.69;;;6.03;39.17
13456;BME280;6800;50.940;6.940;2022-12-18T01:23:03;102115.34;;;6.35;38.81
13456;BME280;6800;50.940;6.940;2022-12-18T01:27:03;102123.44;;;6.13;38.92
13456;BME280;6800;50.940;6.940;2022-12-18T01:35:11;102132.16;;;6.09;38.97
13456;BME280;6800;50.940;6.940;2022-12-18T01:39:12;102125.78;;;6.32;38.77
13456;BME280;6800;50.940;6.940;2022-12-18T01:43:13;102127.19;;;6.51;38.44
13456;BME280;6800;50.940;6.940;2022-12-18T01:51:32;102129.50;;;5.50;39.72
13456;BME280;6800;50.940;6.940;2022-12-18T01:55:39;102129.13;;;5.77;39.64
13456;BME280;6800;50.940;6.940;2022-12-18T01:59:45;102121.28;;;5.86;38.79
13456;BME280;6800;50.940;6.940;2022-12-18T02:03:47;102118.69;;;5.86;39.73
13456;BME280;6800;50.940;6.940;2022-12-18T02:12:06;102117.75;;;6.45;38.30
13456;BME280;6800;50.940;6.940;2022-12-18T02:20:39;102118.91;;;6.29;38.63
13456;BME280;6800;50.940;6.940;2022-12-18T02:25:43;102111.44;;;6.61;37.23
13456;BME280;6800;50.940;6.940;2022-12-18T02:29:40;102128.19;;;5.83;39.16
13456;BME280;6800;50.940;6.940;2022-12-18T02:33:43;102127.69;;;6.19;38.17
13456;BME280;6800;50.940;6.940;2022-12-18T02:37:45;102120.50;;;6.36;37.79
13456;BME280;6800;50.940;6.940;2022-12-18T02:41:47;102115.19;;;6.44;38.53
13456;BME280;6800;50.940;6.940;2022-12-18T02:45:57;102115.88;;;6.55;37.42
13456;BME280;6800;50.940;6.940;2022-12-18T02:54:08;102109.63;;;6.13;38.15
13456;BME280;6800;50.940;6.940;2022-12-18T02:58:14;102104.19;;;6.29;37.88
13456;BME280;6800;50.940;6.940;2022-12-18T03:02:22;102107.19;;;6.02;38.54
13456;BME280;6800;50.940;6.940;2022-12-18T03:06:28;102117.38;;;6.66;37.60
13456;BME280;6800;50.940;6.940;2022-12-18T03:10:33;102114.06;;;6.05;38.84
13456;BME280;6800;50.940;6.940;2022-12-18T03:14:37;102113.50;;;5.86;38.98
13456;BME280;6800;50.940;6.940;2022-12-18T03:18:51;102095.50;;;5.74;39.30
13456;BME280;6800;50.940;6.940;2022-12-18T03:22:59;102096.53;;;6.22;38.17
13456;BME280;6800;50.940;6.940;2022-12-18T03:27:06;102087.06;;;6.19;38.30
13456;BME280;6800;50.940;6.940;2022-12-18T03:31:09;102082.84;;;6.14;37.96
13456;BME280;6800;50.940;6.940;2022-12-18T03:35:13;102070.75;;;5.55;39.52
13456;BME280;6800;50.940;6.940;2022-12-18T03:39:14;102078.47;;;6.17;38.14
13456;BME280;6800;50.940;6.940;2022-12-18T03:43:46;102078.38;;;6.22;39.02
13456;BME280;6800;50.940;6.940;2022-12-18T03:52:37;102081.91;;;6.18;38.75
13456;BME280;6800;50.940;6.940;2022-12-18T03:56:43;102074.34;;;6.04;38.38
13456;BME280;6800;50.940;6.940;2022-12-18T04:00:45;102087.25;;;5.45;39.70
13456;BME280;6800;50.940;6.940;2022-12-18T04:04:48;102084.38;;;5.01;40.58
13456;BME280;6800;50.940;6.940;2022-12-18T04:08:51;102076.38;;;5.87;39.12
13456;BME280;6800;50.940;6.940;2022-12-18T04:12:55;102062.75;;;5.72;39.15
13456;BME280;6800;50.940;6.940;2022-12-18T04:16:56;102056.75;;;5.68;39.62
13456;BME280;6800;50.940;6.940;2022-12-18T04:20:57;102052.03;;;5.97;38.92
13456;BME280;6800;50.940;6.940;2022-12-18T04:24:57;102058.97;;;5.95;38.87
13456;BME280;6800;50.940;6.940;2022-12-18T04:28:57;102070.06;;;5.42;39.69
13456;BME280;6800;50.940;6.940;2022-12-18T04:32:57;102062.41;;;5.94;38.60
13456;BME280;6800;50.940;6.940;2022-12-18T04:36:57;102058.47;;;5.69;40.13
13456;BME280;6800;50.940;6.940;2022-12-18T04:40:58;102074.13;;;4.93;39.86
13456;BME280;6800;50.940;6.940;2022-12-18T04:44:58;102066.28;;;4.99;40.82
13456;BME280;6800;50.940;6.940;2022-12-18T04:48:58;102068.50;;;5.29;39.32
13456;BME280;6800;50.940;6.940;2022-12-18T04:52:59;102060.25;;;5.66;39.75
13456;BME280;6800;50.940;6.940;2022-12-18T04:56:59;102066.94;;;5.16;40.23
13456;BME280;6800;50.940;6.940;2022-12-18T05:01:00;102063.78;;;4.90;40.39
13456;BME280;6800;50.940;6.940;2022-12-18T05:05:00;102062.09;;;4.89;40.06
13456;BME280;6800;50.940;6.940;2022-12-18T05:09:00;102061.09;;;5.01;40.68
13456;BME280;6800;50.940;6.940;2022-12-18T05:13:01;102047.75;;;5.32;39.74
13456;BME280;6800;50.940;6.940;2022-12-18T05:17:01;102049.72;;;5.15;40.04
13456;BME280;6800;50.940;6.940;2022-12-18T05:21:02;102034.75;;;5.98;38.53
13456;BME280;6800;50.940;6.940;2022-12-18T05:25:03;102038.38;;;5.86;39.18
13456;BME280;6800;50.940;6.940;2022-12-18T05:29:04;102041.75;;;5.90;38.53
13456;BME280;6800;50.940;6.940;2022-12-18T05:33:04;102045.47;;;5.71;39.12
13456;BME280;6800;50.940;6.940;2022-12-18T05:37:04;102054.06;;;5.73;39.03
13456;BME280;6800;50.940;6.940;2022-12-18T05:41:06;102049.38;;;6.02;39.01
13456;BME280;6800;50.940;6.940;2022-12-18T05:45:06;102068.44;;;5.96;39.50
13456;BME280;6800;50.940;6.940;2022-12-18T05:49:07;102076.56;;;5.72;40.00
13456;BME280;6800;50.940;6.940;2022-12-18T05:53:07;102084.47;;;4.93;40.88
13456;BME280;6800;50.940;6.940;2022-12-18T05:57:07;102082.94;;;5.47;39.86
13456;BME280;6800;50.940;6.940;2022-12-18T06:01:12;102079.91;;;5.79;39.63
13456;BME280;6800;50.940;6.940;2022-12-18T06:05:13;102095.63;;;5.65;40.45
13456;BME280;6800;50.940;6.940;2022-12-18T06:09:13;102102.19;;;5.93;39.43
13456;BME280;6800;50.940;6.940;2022-12-18T06:13:14;102111.81;;;5.85;39.22
13456;BME280;6800;50.940;6.940;2022-12-18T06:17:14;102119.50;;;5.21;40.65
13456;BME280;6800;50.940;6.940;2022-12-18T06:21:14;102113.28;;;5.36;39.44
13456;BME280;6800;50.940;6.940;2022-12-18T06:25:15;102125.28;;;6.07;38.69
13456;BME280;6800;50.940;6.940;2022-12-18T06:29:15;102116.22;;;5.73;39.05
13456;BME280;6800;50.940;6.940;2022-12-18T06:33:15;102117.06;;;5.76;39.38
13456;BME280;6800;50.940;6.940;2022-12-18T06:37:16;102111.16;;;5.65;39.49
13456;BME280;6800;50.940;6.940;2022-12-18T06:41:18;102128.56;;;5.54;39.68
13456;BME280;6800;50.940;6.940;2022-12-18T06:45:19;102108.78;;;4.75;40.75
13456;BME280;6800;50.940;6.940;2022-12-18T06:49:19;102109.19;;;5.87;39.49
13456;BME280;6800;50.940;6.940;2022-12-18T06:53:19;102109.38;;;5.70;39.47
13456;BME280;6800;50.940;6.940;2022-12-18T06:57:20;102111.25;;;4.89;40.18
13456;BME280;6800;50.940;6.940;2022-12-18T07:01:21;102106.84;;;4.94;40.52
13456;BME280;6800;50.940;6.940;2022-12-18T07:05:21;102098.06;;;5.10;39.93
13456;BME280;6800;50.940;6.940;2022-12-18T07:09:21;102090.72;;;5.45;39.33
13456;BME280;6800;50.940;6.940;2022-12-18T07:13:22;102097.56;;;4.77;41.49
13456;BME280;6800;50.940;6.940;2022-12-18T07:17:22;102105.94;;;5.70;40.63
13456;BME280;6800;50.940;6.940;2022-12-18T07:21:23;102107.03;;;4.78;40.93
13456;BME280;6800;50.940;6.940;2022-12-18T07:25:24;102105.66;;;5.25;40.15
13456;BME280;6800;50.940;6.940;2022-12-18T07:29:24;102096.59;;;4.87;40.37
13456;BME280;6800;50.940;6.940;2022-12-18T07:33:25;102084.53;;;5.57;39.42
13456;BME280;6800;50.940;6.940;2022-12-18T07:37:25;102084.09;;;4.44;41.20
13456;BME280;6800;50.940;6.940;2022-12-18T07:41:25;102088.53;;;4.30;41.75
13456;BME280;6800;50.940;6.940;2022-12-18T07:45:26;102089.34;;;4.37;42.11
13456;BME280;6800;50.940;6.940;2022-12-18T07:49:26;102077.56;;;4.94;41.22
13456;BME280;6800;50.940;6.940;2022-12-18T07:53:27;102090.19;;;5.18;40.18
13456;BME280;6800;50.940;6.940;2022-12-18T07:57:27;102091.22;;;5.05;40.39
13456;BME280;6800;50.940;6.940;2022-12-18T08:01:27;102082.88;;;5.53;39.33
13456;BME280;6800;50.940;6.940;2022-12-18T08:05:28;102077.25;;;4.37;42.12
13456;BME280;6800;50.940;6.940;2022-12-18T08:09:28;102060.53;;;5.44;39.83
13456;BME280;6800;50.940;6.940;2022-12-18T08:13:28;102050.50;;;5.83;39.35
13456;BME280;6800;50.940;6.940;2022-12-18T08:17:28;102052.78;;;5.43;40.13
13456;BME280;6800;50.940;6.940;2022-12-18T08:21:30;102050.47;;;5.22;40.43
13456;BME280;6800;50.940;6.940;2022-12-18T08:25:30;102042.38;;;5.47;40.21
13456;BME280;6800;50.940;6.940;2022-12-18T08:29:31;102027.19;;;5.84;39.38
13456;BME280;6800;50.940;6.940;2022-12-18T08:33:32;102034.38;;;5.63;40.28
13456;BME280;6800;50.940;6.940;2022-12-18T08:37:33;102024.72;;;5.74;39.55
13456;BME280;6800;50.940;6.940;2022-12-18T08:41:33;102020.28;;;5.82;39.80
13456;BME280;6800;50.940;6.940;2022-12-18T08:45:34;102026.13;;;5.97;39.72
13456;BME280;6800;50.940;6.940;2022-12-18T08:49:34;102036.88;;;6.23;39.03
13456;BME280;6800;50.940;6.940;2022-12-18T08:53:35;102023.13;;;6.20;39.53
13456;BME280;6800;50.940;6.940;2022-12-18T08:57:36;102017.44;;;6.00;40.67
13456;BME280;6800;50.940;6.940;2022-12-18T09:01:36;102024.00;;;6.66;38.81
13456;BME280;6800;50.940;6.940;2022-12-18T09:05:36;102016.09;;;6.26;39.33
13456;BME280;6800;50.940;6.940;2022-12-18T09:09:36;102017.59;;;6.40;38.27
13456;BME280;6800;50.940;6.940;2022-12-18T09:13:37;102012.91;;;7.02;37.88
13456;BME280;6800;50.940;6.940;2022-12-18T09:17:37;102016.78;;;6.82;37.59
13456;BME280;6800;50.940;6.940;2022-12-18T09:21:37;102013.00;;;7.74;37.56
13456;BME280;6800;50.940;6.940;2022-12-18T09:25:39;102010.09;;;7.88;36.44
13456;BME280;6800;50.940;6.940;2022-12-18T09:29:39;102002.28;;;7.13;37.52
13456;BME280;6800;50.940;6.940;2022-12-18T09:33:40;101992.56;;;7.96;36.14
13456;BME280;6800;50.940;6.940;2022-12-18T09:37:40;101981.28;;;7.96;35.89
13456;BME280;6800;50.940;6.940;2022-12-18T09:41:47;101980.31;;;8.96;34.57
13456;BME280;6800;50.940;6.940;2022-12-18T09:45:54;101972.75;;;8.87;34.70
13456;BME280;6800;50.940;6.940;2022-12-18T09:49:58;101968.75;;;8.45;35.53
13456;BME280;6800;50.940;6.940;2022-12-18T09:54:05;101971.16;;;7.86;35.74
13456;BME280;6800;50.940;6.940;2022-12-18T09:58:15;101958.88;;;9.71;33.19
13456;BME280;6800;50.940;6.940;2022-12-18T10:02:22;101955.94;;;8.39;34.81
13456;BME280;6800;50.940;6.940;2022-12-18T10:06:37;101954.53;;;7.92;35.75
13456;BME280;6800;50.940;6.940;2022-12-18T10:10:57;101945.63;;;9.23;33.74
13456;BME280;6800;50.940;6.940;2022-12-18T10:15:19;101945.44;;;9.83;32.75
13456;BME280;6800;50.940;6.940;2022-12-18T10:19:40;101943.41;;;9.11;34.17
13456;BME280;6800;50.940;6.940;2022-12-18T10:24:42;101923.81;;;9.54;33.54
13456;BME280;6800;50.940;6.940;2022-12-18T10:28:23;101922.19;;;10.74;31.42
13456;BME280;6800;50.940;6.940;2022-12-18T10:32:27;101933.59;;;9.19;33.80
13456;BME280;6800;50.940;6.940;2022-12-18T10:36:28;101919.66;;;10.48;31.80
13456;BME280;6800;50.940;6.940;2022-12-18T10:40:28;101921.88;;;8.77;34.31
13456;BME280;6800;50.940;6.940;2022-12-18T10:44:29;101907.38;;;10.96;31.21
13456;BME280;6800;50.940;6.940;2022-12-18T10:48:30;101916.28;;;10.46;32.20
13456;BME280;6800;50.940;6.940;2022-12-18T10:52:31;101912.28;;;9.61;33.08
13456;BME280;6800;50.940;6.940;2022-12-18T10:56:34;101897.19;;;10.90;31.12
13456;BME280;6800;50.940;6.940;2022-12-18T11:00:35;101888.47;;;10.90;31.58
13456;BME280;6800;50.940;6.940;2022-12-18T11:04:50;101883.56;;;10.82;31.41
13456;BME280;6800;50.940;6.940;2022-12-18T11:08:59;101885.41;;;10.57;31.21
13456;BME280;6800;50.940;6.940;2022-12-18T11:13:29;101892.59;;;10.28;32.21
13456;BME280;6800;50.940;6.940;2022-12-18T11:17:35;101893.00;;;10.40;32.00
13456;BME280;6800;50.940;6.940;2022-12-18T11:21:40;101896.25;;;9.73;32.85
13456;BME280;6800;50.940;6.940;2022-12-18T11:25:51;101883.03;;;9.26;33.93
13456;BME280;6800;50.940;6.940;2022-12-18T11:29:52;101884.22;;;9.42;33.39
13456;BME280;6800;50.940;6.940;2022-12-18T11:34:17;101872.22;;;9.65;33.38
13456;BME280;6800;50.940;6.940;2022-12-18T11:38:24;101873.31;;;9.58;33.76
13456;BME280;6800;50.940;6.940;2022-12-18T11:42:43;101860.28;;;9.58;33.32
13456;BME280;6800;50.940;6.940;2022-12-18T11:46:49;101875.66;;;8.27;35.60
13456;BME280;6800;50.940;6.940;2022-12-18T11:50:53;101846.66;;;9.23;33.68
13456;BME280;6800;50.940;6.940;2022-12-18T11:54:58;101847.41;;;8.73;34.74
13456;BME280;6800;50.940;6.940;2022-12-18T11:59:19;101847.66;;;8.35;35.23
13456;BME280;6800;50.940;6.940;2022-12-18T12:08:02;101841.19;;;9.31;34.04
13456;BME280;6800;50.940;6.940;2022-12-18T12:20:42;101823.66;;;8.25;35.67
13456;BME280;6800;50.940;6.940;2022-12-18T12:25:01;101815.78;;;8.57;35.57
13456;BME280;6800;50.940;6.940;2022-12-18T12:29:28;101821.69;;;9.16;34.23
13456;BME280;6800;50.940;6.940;2022-12-18T12:33:49;101813.38;;;8.79;35.22
13456;BME280;6800;50.940;6.940;2022-12-18T12:38:16;101796.34;;;8.95;34.52
13456;BME280;6800;50.940;6.940;2022-12-18T12:42:39;101812.38;;;9.35;34.68
13456;BME280;6800;50.940;6.940;2022-12-18T12:47:07;101820.81;;;9.43;34.01
13456;BME280;6800;50.940;6.940;2022-12-18T12:51:20;101811.50;;;8.55;35.55
13456;BME280;6800;50.940;6.940;2022-12-18T12:55:24;101807.53;;;8.99;34.85
13456;BME280;6800;50.940;6.940;2022-12-18T12:59:36;101795.72;;;8.32;36.06
13456;BME280;6800;50.940;6.940;2022-12-18T13:07:59;101838.31;;;7.97;36.53
13456;BME280;6800;50.940;6.940;2022-12-18T13:12:04;101815.38;;;8.42;36.22
13456;BME280;6800;50.940;6.940;2022-12-18T13:16:27;101815.03;;;8.54;36.34
13456;BME280;6800;50.940;6.940;2022-12-18T13:20:33;101794.53;;;8.97;35.28
13456;BME280;6800;50.940;6.940;2022-12-18T13:24:34;101788.66;;;8.37;38.01
13456;BME280;6800;50.940;6.940;2022-12-18T13:32:47;101800.47;;;9.28;34.72
13456;BME280;6800;50.940;6.940;2022-12-18T13:36:50;101784.69;;;9.07;34.87
13456;BME280;6800;50.940;6.940;2022-12-18T13:44:51;101788.25;;;9.30;33.99
13456;BME280;6800;50.940;6.940;2022-12-18T13:49:03;101789.34;;;9.48;34.17
13456;BME280;6800;50.940;6.940;2022-12-18T13:53:05;101765.81;;;9.00;35.56
13456;BME280;6800;50.940;6.940;2022-12-18T14:01:25;101780.03;;;8.90;35.21
13456;BME280;6800;50.940;6.940;2022-12-18T14:05:34;101778.28;;;8.91;34.60
13456;BME280;6800;50.940;6.940;2022-12-18T14:09:39;101760.47;;;9.79;34.23
13456;BME280;6800;50.940;6.940;2022-12-18T14:13:41;101749.19;;;9.78;33.73
13456;BME280;6800;50.940;6.940;2022-12-18T14:17:42;101754.91;;;9.15;35.49
13456;BME280;6800;50.940;6.940;2022-12-18T14:21:47;101751.47;;;8.61;35.91
13456;BME280;6800;50.940;6.940;2022-12-18T14:25:49;101748.78;;;8.36;36.06
13456;BME280;6800;50.940;6.940;2022-12-18T14:29:50;101738.69;;;9.80;34.89
13456;BME280;6800;50.940;6.940;2022-12-18T14:33:51;101748.16;;;9.34;35.28
13456;BME280;6800;50.940;6.940;2022-12-18T14:37:52;101735.50;;;9.49;34.90
13456;BME280;6800;50.940;6.940;2022-12-18T14:41:52;101721.84;;;8.91;36.32
13456;BME280;6800;50.940;6.940;2022-12-18T14:49:54;101722.00;;;9.61;35.40
13456;BME280;6800;50.940;6.940;2022-12-18T14:53:56;101727.06;;;9.17;35.93
13456;BME280;6800;50.940;6.940;2022-12-18T14:57:58;101712.69;;;8.26;37.26
13456;BME280;6800;50.940;6.940;2022-12-18T15:02:09;101715.50;;;9.00;35.99
13456;BME280;6800;50.940;6.940;2022-12-18T15:06:45;101707.56;;;8.50;37.56
13456;BME280;6800;50.940;6.940;2022-12-18T15:10:47;101714.00;;;7.82;38.77
13456;BME280;6800;50.940;6.940;2022-12-18T15:14:48;101715.34;;;7.64;37.70
13456;BME280;6800;50.940;6.940;2022-12-18T15:18:49;101708.88;;;8.37;37.21
13456;BME280;6800;50.940;6.940;2022-12-18T15:22:49;101701.03;;;8.39;37.50
13456;BME280;6800;50.940;6.940;2022-12-18T15:26:49;101711.88;;;7.65;39.07
13456;BME280;6800;50.940;6.940;2022-12-18T15:35:18;101714.75;;;8.44;36.84
13456;BME280;6800;50.940;6.940;2022-12-18T15:39:19;101699.44;;;8.35;36.38
13456;BME280;6800;50.940;6.940;2022-12-18T15:43:23;101703.25;;;7.33;38.76
13456;BME280;6800;50.940;6.940;2022-12-18T15:47:36;101705.31;;;8.11;38.12
13456;BME280;6800;50.940;6.940;2022-12-18T15:51:37;101697.63;;;7.78;39.17
13456;BME280;6800;50.940;6.940;2022-12-18T15:55:38;101696.91;;;8.03;40.06
13456;BME280;6800;50.940;6.940;2022-12-18T15:59:57;101695.25;;;7.71;39.66
13456;BME280;6800;50.940;6.940;2022-12-18T16:03:58;101701.09;;;6.84;40.51
13456;BME280;6800;50.940;6.940;2022-12-18T16:07:58;101700.00;;;8.15;38.12
13456;BME280;6800;50.940;6.940;2022-12-18T16:12:01;101722.47;;;7.58;39.42
13456;BME280;6800;50.940;6.940;2022-12-18T16:16:02;101704.66;;;8.04;38.24
13456;BME280;6800;50.940;6.940;2022-12-18T16:20:02;101690.19;;;8.23;38.44
13456;BME280;6800;50.940;6.940;2022-12-18T16:24:03;101686.97;;;7.58;40.32
13456;BME280;6800;50.940;6.940;2022-12-18T16:28:03;101694.00;;;8.95;37.42
13456;BME280;6800;50.940;6.940;2022-12-18T16:32:04;101671.16;;;7.95;38.70
13456;BME280;6800;50.940;6.940;2022-12-18T16:36:04;101671.41;;;6.94;41.05
13456;BME280;6800;50.940;6.940;2022-12-18T16:40:06;101677.81;;;7.45;39.91
13456;BME280;6800;50.940;6.940;2022-12-18T16:44:09;101673.88;;;8.47;38.22
13456;BME280;6800;50.940;6.940;2022-12-18T16:48:10;101693.97;;;7.24;39.77
13456;BME280;6800;50.940;6.940;2022-12-18T16:52:10;101664.13;;;8.54;38.47
13456;BME280;6800;50.940;6.940;2022-12-18T16:56:11;101664.44;;;8.70;37.76
13456;BME280;6800;50.940;6.940;2022-12-18T17:00:11;101662.13;;;8.87;37.46
13456;BME280;6800;50.940;6.940;2022-12-18T17:04:12;101660.56;;;9.55;36.25
13456;BME280;6800;50.940;6.940;2022-12-18T17:08:12;101680.97;;;8.42;38.16
13456;BME280;6800;50.940;6.940;2022-12-18T17:12:13;101701.81;;;7.84;39.25
13456;BME280;6800;50.940;6.940;2022-12-18T17:16:13;101696.84;;;8.87;37.97
13456;BME280;6800;50.940;6.940;2022-12-18T17:20:13;101706.88;;;8.45;37.95
13456;BME280;6800;50.940;6.940;2022-12-18T17:24:14;101694.19;;;8.62;38.28
13456;BME280;6800;50.940;6.940;2022-12-18T17:28:14;101683.38;;;8.99;37.81
13456;BME280;6800;50.940;6.940;2022-12-18T17:32:15;101685.69;;;8.30;38.47
13456;BME280;6800;50.940;6.940;2022-12-18T17:36:16;101671.31;;;7.89;39.74
13456;BME280;6800;50.940;6.940;2022-12-18T17:40:16;101650.97;;;8.83;38.04
13456;BME280;6800;50.940;6.940;2022-12-18T17:44:17;101656.84;;;8.10;38.21
13456;BME280;6800;50.940;6.940;2022-12-18T17:48:17;101651.53;;;8.13;39.15
13456;BME280;6800;50.940;6.940;2022-12-18T17:52:18;101654.31;;;7.79;39.50
13456;BME280;6800;50.940;6.940;2022-12-18T17:56:20;101664.56;;;8.67;37.91
13456;BME280;6800;50.940;6.940;2022-12-18T18:00:21;101664.25;;;7.34;39.63
13456;BME280;6800;50.940;6.940;2022-12-18T18:04:21;101665.81;;;8.00;38.63
13456;BME280;6800;50.940;6.940;2022-12-18T18:08:22;101670.78;;;7.18;41.38
13456;BME280;6800;50.940;6.940;2022-12-18T18:12:22;101651.00;;;8.31;39.19
13456;BME280;6800;50.940;6.940;2022-12-18T18:16:43;101663.03;;;7.47;41.07
13456;BME280;6800;50.940;6.940;2022-12-18T18:20:43;101664.13;;;7.99;39.47
13456;BME280;6800;50.940;6.940;2022-12-18T18:24:43;101657.19;;;7.98;39.38
13456;BME280;6800;50.940;6.940;2022-12-18T18:28:44;101667.53;;;8.01;38.97
13456;BME280;6800;50.940;6.940;2022-12-18T18:32:44;101676.47;;;8.20;39.19
13456;BME280;6800;50.940;6.940;2022-12-18T18:36:45;101678.16;;;7.93;39.28
13456;BME280;6800;50.940;6.940;2022-12-18T18:40:45;101669.84;;;8.65;38.51
13456;BME280;6800;50.940;6.940;2022-12-18T18:44:45;101678.69;;;9.35;36.36
13456;BME280;6800;50.940;6.940;2022-12-18T18:48:45;101695.66;;;8.16;38.50
13456;BME280;6800;50.940;6.940;2022-12-18T18:52:46;101689.59;;;8.71;37.71
13456;BME280;6800;50.940;6.940;2022-12-18T18:56:47;101672.03;;;9.02;36.77
13456;BME280;6800;50.940;6.940;2022-12-18T19:00:59;101673.31;;;9.15;37.43
13456;BME280;6800;50.940;6.940;2022-12-18T19:04:59;101683.38;;;7.92;39.58
13456;BME280;6800;50.940;6.940;2022-12-18T19:09:01;101675.53;;;7.64;39.93
13456;BME280;6800;50.940;6.940;2022-12-18T19:13:02;101646.13;;;8.48;37.83
13456;BME280;6800;50.940;6.940;2022-12-18T19:17:31;101652.91;;;8.24;38.29
13456;BME280;6800;50.940;6.940;2022-12-18T19:21:32;101652.41;;;8.67;37.89
13456;BME280;6800;50.940;6.940;2022-12-18T19:25:36;101665.94;;;8.50;37.38
13456;BME280;6800;50.940;6.940;2022-12-18T19:29:36;101664.78;;;8.60;37.23
13456;BME280;6800;50.940;6.940;2022-12-18T19:33:39;101658.22;;;8.75;37.70
13456;BME280;6800;50.940;6.940;2022-12-18T19:37:40;101646.81;;;9.52;36.86
13456;BME280;6800;50.940;6.940;2022-12-18T19:41:40;101634.94;;;9.89;35.73
13456;BME280;6800;50.940;6.940;2022-12-18T19:45:41;101632.72;;;8.85;37.19
13456;BME280;6800;50.940;6.940;2022-12-18T19:49:41;101650.66;;;9.17;36.67
13456;BME280;6800;50.940;6.940;2022-12-18T19:53:42;101649.00;;;9.39;36.26
13456;BME280;6800;50.940;6.940;2022-12-18T19:57:43;101659.44;;;8.65;38.37
13456;BME280;6800;50.940;6.940;2022-12-18T20:01:43;101652.66;;;8.33;37.41
13456;BME280;6800;50.940;6.940;2022-12-18T20:05:44;101638.34;;;9.22;37.49
13456;BME280;6800;50.940;6.940;2022-12-18T20:09:44;101633.56;;;9.10;36.91
13456;BME280;6800;50.940;6.940;2022-12-18T20:13:44;101655.63;;;9.24;36.82
13456;BME280;6800;50.940;6.940;2022-12-18T20:17:44;101659.78;;;9.05;37.27
13456;BME280;6800;50.940;6.940;2022-12-18T20:21:45;101645.53;;;9.38;38.28
13456;BME280;6800;50.940;6.940;2022-12-18T20:25:45;101648.06;;;9.41;36.00
13456;BME280;6800;50.940;6.940;2022-12-18T20:29:45;101647.75;;;9.01;37.33
13456;BME280;6800;50.940;6.940;2022-12-18T20:33:46;101633.69;;;9.07;37.82
13456;BME280;6800;50.940;6.940;2022-12-18T20:37:46;101650.56;;;8.71;37.41
13456;BME280;6800;50.940;6.940;2022-12-18T20:41:46;101643.94;;;9.81;36.50
13456;BME280;6800;50.940;6.940;2022-12-18T20:45:47;101663.56;;;8.71;38.34
13456;BME280;6800;50.940;6.940;2022-12-18T20:49:47;101666.41;;;8.37;38.35
13456;BME280;6800;50.940;6.940;2022-12-18T20:53:47;101665.00;;;9.98;35.86
13456;BME280;6800;50.940;6.940;2022-12-18T20:57:47;101689.91;;;8.05;38.99
13456;BME280;6800;50.940;6.940;2022-12-18T21:01:48;101675.59;;;8.99;38.05
13456;BME280;6800;50.940;6.940;2022-12-18T21:05:48;101674.91;;;8.68;38.13
13456;BME280;6800;50.940;6.940;2022-12-18T21:09:49;101665.47;;;9.39;36.39
13456;BME280;6800;50.940;6.940;2022-12-18T21:13:49;101649.19;;;10.02;35.98
13456;BME280;6800;50.940;6.940;2022-12-18T21:17:49;101659.06;;;9.00;37.85
13456;BME280;6800;50.940;6.940;2022-12-18T21:21:50;101646.16;;;9.68;36.80
13456;BME280;6800;50.940;6.940;2022-12-18T21:25:51;101645.16;;;9.72;37.27
13456;BME280;6800;50.940;6.940;2022-12-18T21:29:51;101647.66;;;9.52;36.75
13456;BME280;6800;50.940;6.940;2022-12-18T21:33:51;101653.72;;;9.05;38.72
13456;BME280;6800;50.940;6.940;2022-12-18T21:37:52;101650.31;;;10.40;36.69
13456;BME280;6800;50.940;6.940;2022-12-18T21:41:52;101632.66;;;9.80;38.25
13456;BME280;6800;50.940;6.940;2022-12-18T21:46:11;101641.16;;;9.85;39.06
13456;BME280;6800;50.940;6.940;2022-12-18T21:50:11;101637.09;;;9.32;40.08
13456;BME280;6800;50.940;6.940;2022-12-18T21:54:11;101639.88;;;9.51;40.59
13456;BME280;6800;50.940;6.940;2022-12-18T21:58:12;101640.78;;;10.39;39.86
13456;BME280;6800;50.940;6.940;2022-12-18T22:02:16;101620.38;;;9.84;40.88
13456;BME280;6800;50.940;6.940;2022-12-18T22:06:17;101616.31;;;9.54;41.67
13456;BME280;6800;50.940;6.940;2022-12-18T22:10:17;101604.75;;;9.61;41.27
13456;BME280;6800;50.940;6.940;2022-12-18T22:14:18;101600.13;;;9.22;42.81
13456;BME280;6800;50.940;6.940;2022-12-18T22:18:18;101589.91;;;9.16;42.76
13456;BME280;6800;50.940;6.940;2022-12-18T22:22:20;101587.06;;;9.90;41.36
13456;BME280;6800;50.940;6.940;2022-12-18T22:26:22;101577.56;;;10.33;41.20
13456;BME280;6800;50.940;6.940;2022-12-18T22:30:22;101568.22;;;10.27;41.07
13456;BME280;6800;50.940;6.940;2022-12-18T22:34:23;101566.44;;;10.49;40.84
13456;BME280;6800;50.940;6.940;2022-12-18T22:38:23;101572.66;;;9.37;42.74
13456;BME280;6800;50.940;6.940;2022-12-18T22:42:23;101568.72;;;10.15;42.24
13456;BME280;6800;50.940;6.940;2022-12-18T22:46:24;101555.84;;;9.89;41.90
13456;BME280;6800;50.940;6.940;2022-12-18T22:50:26;101559.56;;;9.83;42.03